Time;durP1;ratioP1;P1;durP2;ratioP2;P2;SDS_P1;SDS_P2;PMS_P1;PMS_P2;Temp;Humidity;BMP_temperature;BMP_pressure;BME280_temperature;BME280_humidity;BME280_pressure;Samples;Min_cycle;Max_cycle;Signal;HPM_P1;HPM_P2
2022/12/05 00:00:04;;;;;;;26.37;11.60;;;-0.50;1.00;-0.10;93578.00;;;;7399140;19;20157;-76
2022/12/05 00:02:37;;;;;;;27.67;11.70;;;-0.50;1.00;-0.10;93594.00;;;;7397224;19;20180;-76
2022/12/05 00:05:06;;;;;;;26.33;10.60;;;-0.50;1.00;0.00;93603.00;;;;7398931;19;20188;-77
2022/12/05 00:07:33;;;;;;;26.70;12.70;;;-0.50;1.00;-0.10;93610.00;;;;7398147;19;20129;-77
2022/12/05 00:10:07;;;;;;;24.20;10.83;;;-0.40;1.00;0.00;93618.00;;;;7395162;19;20192;-77
2022/12/05 00:12:34;;;;;;;27.70;10.77;;;-0.40;1.00;-0.10;93604.00;;;;7398752;19;20152;-77
2022/12/05 00:15:01;;;;;;;21.93;11.50;;;-0.40;1.00;-0.10;93602.00;;;;7398036;19;20157;-77
2022/12/05 00:17:35;;;;;;;25.20;11.87;;;-0.40;1.00;-0.20;93614.00;;;;7397790;19;20230;-76
2022/12/05 00:20:03;;;;;;;26.87;11.53;;;-0.40;1.00;-0.10;93607.00;;;;7398708;19;20165;-76
2022/12/05 00:22:30;;;;;;;26.27;11.20;;;-0.40;1.00;-0.10;93597.00;;;;7397263;19;20136;-76
2022/12/05 00:25:06;;;;;;;20.67;10.57;;;-0.40;1.00;-0.20;93592.00;;;;7400379;19;20480;-76
2022/12/05 00:27:34;;;;;;;18.10;9.83;;;-0.40;1.00;-0.20;93610.00;;;;7397468;19;20156;-76
2022/12/05 00:30:02;;;;;;;24.77;11.70;;;-0.40;1.00;-0.10;93604.00;;;;7399688;19;20584;-76
2022/12/05 00:32:42;;;;;;;21.37;10.63;;;-0.40;1.00;-0.10;93599.00;;;;7398973;19;20156;-75
2022/12/05 00:35:09;;;;;;;23.40;11.07;;;-0.40;1.00;0.00;93603.00;;;;7398293;19;20496;-76
2022/12/05 00:37:42;;;;;;;21.60;10.87;;;-0.30;1.00;-0.10;93613.00;;;;7398768;19;20192;-76
2022/12/05 00:40:16;;;;;;;21.47;9.93;;;-0.30;1.00;0.00;93637.00;;;;7397128;19;20208;-76
2022/12/05 00:42:57;;;;;;;21.50;10.60;;;-0.30;1.00;-0.10;93616.00;;;;7395388;19;20554;-76
2022/12/05 00:45:24;;;;;;;23.97;10.77;;;-0.30;1.00;0.00;93623.00;;;;7399391;19;20536;-76
2022/12/05 00:47:58;;;;;;;19.13;9.73;;;-0.40;1.00;0.00;93597.00;;;;7397578;19;20140;-77
2022/12/05 00:50:25;;;;;;;17.53;9.77;;;-0.40;1.00;-0.10;93623.00;;;;7399035;19;20136;-76
2022/12/05 00:52:52;;;;;;;17.90;9.90;;;-0.40;1.00;-0.10;93609.00;;;;7395872;19;20496;-77
2022/12/05 00:55:25;;;;;;;24.23;10.13;;;-0.40;1.00;-0.10;93594.00;;;;7396929;19;20513;-77
2022/12/05 00:57:52;;;;;;;19.20;9.70;;;-0.40;1.00;-0.10;93578.00;;;;7397590;19;20170;-77
2022/12/05 01:00:19;;;;;;;19.50;10.30;;;-0.40;1.00;0.00;93593.00;;;;7396226;19;20170;-77
2022/12/05 01:02:55;;;;;;;20.97;9.67;;;-0.30;1.00;-0.10;93621.00;;;;7396156;19;20148;-77
2022/12/05 01:05:22;;;;;;;22.03;10.13;;;-0.30;1.00;-0.10;93606.00;;;;7398266;19;20128;-77
2022/12/05 01:07:49;;;;;;;20.37;9.77;;;-0.30;1.00;0.00;93583.00;;;;7397930;19;20588;-77
2022/12/05 01:10:22;;;;;;;21.43;10.13;;;-0.30;1.00;0.00;93620.00;;;;7385199;19;20644;-75
2022/12/05 01:12:49;;;;;;;19.73;10.10;;;-0.30;1.00;-0.10;93610.00;;;;7397553;19;20137;-77
2022/12/05 01:15:16;;;;;;;17.80;9.83;;;-0.40;1.00;-0.10;93620.00;;;;7396438;19;20165;-76
2022/12/05 01:17:50;;;;;;;20.27;9.77;;;-0.40;1.00;-0.10;93638.00;;;;7396859;19;20164;-77
2022/12/05 01:20:17;;;;;;;17.20;8.77;;;-0.40;1.00;-0.10;93639.00;;;;7398971;19;20157;-77
2022/12/05 01:22:45;;;;;;;17.93;9.33;;;-0.40;1.00;-0.20;93628.00;;;;7395042;19;20173;-77
2022/12/05 01:25:18;;;;;;;15.90;8.43;;;-0.40;1.00;-0.20;93607.00;;;;7393950;19;20164;-77
2022/12/05 01:27:45;;;;;;;15.87;8.70;;;-0.50;1.00;-0.30;93604.00;;;;7396051;19;20626;-77
2022/12/05 01:30:13;;;;;;;14.87;8.37;;;-0.60;1.00;-0.40;93621.00;;;;7396495;19;20215;-76
2022/12/05 01:32:46;;;;;;;14.20;8.37;;;-0.70;1.00;-0.50;93648.00;;;;7394736;19;20180;-77
2022/12/05 01:35:14;;;;;;;15.33;7.90;;;-0.80;1.00;-0.50;93638.00;;;;7395796;19;20148;-77
2022/12/05 01:37:41;;;;;;;16.27;9.07;;;-0.80;1.00;-0.50;93632.00;;;;7395676;19;20137;-77
2022/12/05 01:40:21;;;;;;;15.90;8.23;;;-0.90;1.00;-0.50;93657.00;;;;7396625;19;20232;-76
2022/12/05 01:42:55;;;;;;;14.40;8.70;;;-0.80;1.00;-0.60;93643.00;;;;7394659;19;20153;-76
2022/12/05 01:45:37;;;;;;;18.50;8.00;;;-0.80;1.00;-0.60;93631.00;;;;7397915;19;20482;-77
2022/12/05 01:48:13;;;;;;;15.20;8.37;;;-0.90;1.00;-0.50;93632.00;;;;7396382;19;20148;-76
2022/12/05 01:50:49;;;;;;;16.63;8.83;;;-0.90;1.00;-0.50;93650.00;;;;7395451;19;20200;-77
2022/12/05 01:53:18;;;;;;;23.60;9.33;;;-0.90;1.00;-0.40;93654.00;;;;7398401;19;20470;-77
2022/12/05 01:55:48;;;;;;;23.03;8.60;;;-0.80;1.00;-0.30;93652.00;;;;7395307;19;20155;-77
2022/12/05 01:58:27;;;;;;;25.27;9.23;;;-0.80;1.00;-0.30;93678.00;;;;7396712;19;20498;-77
2022/12/05 02:00:54;;;;;;;43.57;10.30;;;-0.70;1.00;-0.30;93688.00;;;;7395436;19;20472;-77
2022/12/05 02:03:22;;;;;;;44.10;11.10;;;-0.60;1.00;-0.20;93654.00;;;;7393242;19;20152;-77
2022/12/05 02:05:58;;;;;;;53.87;11.87;;;-0.60;1.00;-0.20;93670.00;;;;7402818;19;20567;-77
2022/12/05 02:08:27;;;;;;;92.20;13.50;;;-0.60;1.00;-0.20;93669.00;;;;7403173;19;20164;-77
2022/12/05 02:10:57;;;;;;;218.87;18.93;;;-0.60;1.00;-0.10;93639.00;;;;7399772;19;20216;-78
2022/12/05 02:14:02;;;;;;;304.50;24.30;;;-0.60;1.00;-0.20;93673.00;;;;7402014;19;20180;-77
2022/12/05 02:16:53;;;;;;;261.53;21.93;;;-0.60;1.00;0.00;93691.00;;;;7403501;19;20133;-77
2022/12/05 02:19:50;;;;;;;314.70;21.60;;;-0.60;1.00;0.00;93673.00;;;;7402567;19;20509;-77
2022/12/05 02:22:49;;;;;;;301.10;23.83;;;-0.60;1.00;-0.10;93685.00;;;;7400734;19;20616;-77
2022/12/05 02:25:55;;;;;;;339.50;26.30;;;-0.60;1.00;-0.10;93688.00;;;;7403009;19;20137;-77
2022/12/05 02:28:55;;;;;;;377.07;27.27;;;-0.60;1.00;-0.20;93681.00;;;;7402031;19;20133;-76
2022/12/05 02:31:54;;;;;;;447.57;29.13;;;-0.60;1.00;-0.30;93693.00;;;;7401147;19;20144;-77
2022/12/05 02:34:39;;;;;;;326.33;22.97;;;-0.60;1.00;-0.40;93680.00;;;;7403996;19;20129;-77
2022/12/05 02:37:48;;;;;;;319.47;24.90;;;-0.50;1.00;-0.10;93717.00;;;;7403413;19;20133;-76
2022/12/05 02:41:02;;;;;;;404.17;29.57;;;-0.50;1.00;-0.10;93709.00;;;;7400264;19;20153;-77
2022/12/05 02:44:14;;;;;;;279.97;22.57;;;-0.50;1.00;-0.20;93695.00;;;;7400026;19;20163;-77
2022/12/05 02:46:45;;;;;;;224.43;24.17;;;-0.50;1.00;-0.10;93701.00;;;;7401150;19;20588;-77
2022/12/05 02:49:25;;;;;;;189.97;20.60;;;-0.50;1.00;0.00;93693.00;;;;7401545;19;20163;-77
2022/12/05 02:51:58;;;;;;;163.80;19.57;;;-0.50;1.00;0.00;93707.00;;;;7400878;19;20149;-77
2022/12/05 02:54:40;;;;;;;138.70;18.03;;;-0.40;1.00;0.00;93719.00;;;;7403311;19;20472;-77
2022/12/05 02:57:09;;;;;;;93.67;16.43;;;-0.40;1.00;0.00;93697.00;;;;7401472;19;20160;-77
2022/12/05 02:59:43;;;;;;;129.00;16.33;;;-0.40;1.00;0.00;93707.00;;;;7402029;19;20137;-77
2022/12/05 03:02:30;;;;;;;132.60;18.10;;;-0.40;1.00;0.00;93711.00;;;;7398606;19;20133;-77
2022/12/05 03:05:22;;;;;;;68.20;13.70;;;-0.40;1.00;-0.10;93720.00;;;;7401743;19;20149;-77
2022/12/05 03:07:55;;;;;;;49.37;13.67;;;-0.40;1.00;0.20;93692.00;;;;7402056;19;20220;-77
2022/12/05 03:10:35;;;;;;;54.60;14.47;;;-0.40;1.00;0.20;93707.00;;;;7397631;19;20152;-77
2022/12/05 03:13:18;;;;;;;53.03;14.97;;;-0.30;1.00;0.10;93707.00;;;;7401839;19;20144;-77
2022/12/05 03:16:07;;;;;;;54.60;15.50;;;-0.30;1.00;0.20;93695.00;;;;7398405;19;20603;-77
2022/12/05 03:18:47;;;;;;;38.10;14.97;;;-0.30;1.00;0.30;93702.00;;;;7401512;19;20592;-77
2022/12/05 03:21:31;;;;;;;29.50;13.37;;;-0.30;1.00;0.20;93701.00;;;;7400361;19;20643;-77
2022/12/05 03:24:10;;;;;;;37.00;14.20;;;-0.20;1.00;0.20;93679.00;;;;7401988;19;20631;-77
2022/12/05 03:27:18;;;;;;;34.17;14.73;;;-0.20;1.00;0.30;93705.00;;;;7400400;19;20228;-76
2022/12/05 03:30:08;;;;;;;30.53;12.17;;;-0.20;1.00;0.30;93685.00;;;;7398884;19;20144;-76
2022/12/05 03:33:06;;;;;;;32.27;13.60;;;-0.20;1.00;0.20;93689.00;;;;7400148;19;20626;-77
2022/12/05 03:36:01;;;;;;;39.83;14.77;;;-0.10;1.00;0.30;93669.00;;;;7399421;19;20133;-77
2022/12/05 03:38:47;;;;;;;32.40;13.67;;;-0.10;1.00;0.50;93698.00;;;;7401056;19;21034;-77
2022/12/05 03:41:43;;;;;;;31.33;13.97;;;-0.10;1.00;0.40;93689.00;;;;7396624;19;20188;-77
2022/12/05 03:44:55;;;;;;;32.17;13.33;;;-0.10;1.00;0.30;93693.00;;;;7400139;19;20128;-77
2022/12/05 03:48:19;;;;;;;30.20;13.17;;;-0.10;1.00;0.30;93700.00;;;;7399381;19;20185;-77
2022/12/05 03:50:55;;;;;;;39.63;14.43;;;-0.20;1.00;0.30;93695.00;;;;7395823;19;20542;-77
2022/12/05 03:53:31;;;;;;;34.23;13.43;;;-0.20;1.00;0.40;93706.00;;;;7397910;19;20165;-77
2022/12/05 03:56:11;;;;;;;33.40;13.50;;;-0.20;1.00;0.30;93683.00;;;;7400320;19;20137;-77
2022/12/05 03:59:01;;;;;;;37.67;14.53;;;-0.20;1.00;0.40;93680.00;;;;7399304;19;20145;-77
2022/12/05 04:01:38;;;;;;;32.47;13.73;;;-0.20;1.00;0.40;93693.00;;;;7397635;19;20163;-77
2022/12/05 04:04:20;;;;;;;31.67;13.00;;;-0.20;1.00;0.30;93707.00;;;;7400226;19;20152;-77
2022/12/05 04:06:57;;;;;;;37.83;14.90;;;-0.20;1.00;0.30;93699.00;;;;7398864;19;20149;-78
2022/12/05 04:09:41;;;;;;;34.93;14.23;;;-0.20;1.00;0.20;93696.00;;;;7397008;19;20128;-77
2022/12/05 04:12:26;;;;;;;37.33;14.67;;;-0.20;1.00;0.40;93678.00;;;;7398827;19;20596;-77
2022/12/05 04:15:00;;;;;;;33.27;14.83;;;-0.20;1.00;0.50;93720.00;;;;7398415;19;20541;-77
2022/12/05 04:17:47;;;;;;;36.13;13.93;;;-0.20;1.00;0.50;93715.00;;;;7398493;19;20149;-77
2022/12/05 04:23:32;;;;;;;31.90;14.00;;;-0.20;1.00;0.40;93705.00;;;;7397311;19;20153;-77
2022/12/05 04:26:10;;;;;;;34.17;13.13;;;-0.10;1.00;0.40;93733.00;;;;7399535;19;20140;-77
2022/12/05 04:29:01;;;;;;;32.17;13.63;;;-0.10;1.00;0.50;93736.00;;;;7399094;19;20159;-77
2022/12/05 04:31:40;;;;;;;30.10;13.20;;;-0.20;1.00;0.60;93710.00;;;;7397535;19;20155;-77
2022/12/05 04:34:18;;;;;;;27.40;12.73;;;-0.20;1.00;0.40;93730.00;;;;7399227;19;20663;-77
2022/12/05 04:37:00;;;;;;;34.40;13.20;;;-0.20;1.00;0.40;93739.00;;;;7398075;19;20149;-77
2022/12/05 04:39:56;;;;;;;26.37;12.10;;;-0.20;1.00;0.40;93723.00;;;;7397596;19;20156;-77
2022/12/05 04:42:34;;;;;;;32.63;13.60;;;-0.20;1.00;0.40;93706.00;;;;7396737;19;20129;-76
2022/12/05 04:45:15;;;;;;;30.53;13.47;;;-0.20;1.00;0.50;93736.00;;;;7399098;19;20648;-77
2022/12/05 04:47:53;;;;;;;31.57;13.00;;;-0.20;1.00;0.50;93742.00;;;;7398800;19;20128;-77
2022/12/05 04:50:32;;;;;;;29.33;12.83;;;-0.20;1.00;0.50;93744.00;;;;7398482;19;20145;-77
2022/12/05 04:53:01;;;;;;;29.50;13.00;;;-0.20;1.00;0.50;93740.00;;;;7398426;19;20663;-78
2022/12/05 04:55:41;;;;;;;28.50;12.73;;;-0.20;1.00;0.40;93752.00;;;;7398829;19;20132;-77
2022/12/05 04:58:20;;;;;;;30.40;12.67;;;-0.20;1.00;0.50;93743.00;;;;7398139;19;20156;-77
2022/12/05 05:01:24;;;;;;;33.37;14.47;;;-0.10;1.00;0.50;93752.00;;;;7396059;19;20169;-77
2022/12/05 05:04:04;;;;;;;30.97;13.47;;;-0.10;1.00;0.60;93748.00;;;;7396450;19;20132;-77
2022/12/05 05:06:39;;;;;;;28.73;11.90;;;-0.10;1.00;0.50;93758.00;;;;7397309;19;20152;-78
2022/12/05 05:09:07;;;;;;;30.23;13.13;;;-0.10;1.00;0.50;93753.00;;;;7395151;19;20150;-75
2022/12/05 05:11:35;;;;;;;30.13;13.17;;;-0.10;1.00;0.40;93756.00;;;;7396779;19;20169;-77
2022/12/05 05:14:08;;;;;;;26.00;11.53;;;-0.10;1.00;0.30;93748.00;;;;7395777;19;20171;-77
2022/12/05 05:16:39;;;;;;;23.40;11.30;;;-0.10;1.00;0.30;93762.00;;;;7396775;19;20485;-77
2022/12/05 05:19:09;;;;;;;24.87;11.43;;;-0.10;1.00;0.30;93755.00;;;;7397388;19;20132;-77
2022/12/05 05:21:49;;;;;;;24.60;11.40;;;-0.10;1.00;0.40;93742.00;;;;7394366;19;20144;-77
2022/12/05 05:24:18;;;;;;;28.50;11.73;;;-0.10;1.00;0.30;93760.00;;;;7395273;19;20145;-77
2022/12/05 05:26:52;;;;;;;36.97;13.70;;;-0.10;1.00;0.40;93754.00;;;;7393367;19;20421;-77
2022/12/05 05:29:23;;;;;;;26.57;11.77;;;-0.10;1.00;0.40;93743.00;;;;7395917;19;20133;-77
2022/12/05 05:31:50;;;;;;;39.03;13.40;;;-0.10;1.00;0.30;93757.00;;;;7396787;19;20606;-76
2022/12/05 05:34:27;;;;;;;20.53;10.00;;;-0.10;1.00;0.20;93735.00;;;;7397528;19;20121;-77
2022/12/05 05:36:54;;;;;;;20.83;10.00;;;-0.10;1.00;0.20;93739.00;;;;7396377;19;20204;-76
2022/12/05 05:39:21;;;;;;;22.93;11.27;;;-0.10;1.00;0.20;93752.00;;;;7396220;19;20125;-77
2022/12/05 05:42:02;;;;;;;27.07;11.63;;;-0.10;1.00;0.40;93752.00;;;;7397214;19;20610;-77
2022/12/05 05:44:29;;;;;;;22.70;11.27;;;-0.10;1.00;0.30;93775.00;;;;7396304;19;20165;-76
2022/12/05 05:47:03;;;;;;;32.80;11.40;;;-0.10;1.00;0.30;93787.00;;;;7396583;19;20136;-76
2022/12/05 05:49:30;;;;;;;23.50;10.57;;;-0.10;1.00;0.30;93792.00;;;;7395868;19;20137;-77
2022/12/05 05:51:57;;;;;;;19.53;10.87;;;-0.10;1.00;0.30;93792.00;;;;7396990;19;20565;-77
2022/12/05 05:54:30;;;;;;;18.57;10.83;;;-0.10;1.00;0.40;93787.00;;;;7396955;19;20129;-76
2022/12/05 05:56:57;;;;;;;41.53;11.50;;;-0.10;1.00;0.30;93776.00;;;;7395879;19;20668;-76
2022/12/05 05:59:25;;;;;;;18.00;9.50;;;-0.10;1.00;0.40;93809.00;;;;7396545;19;20794;-77
2022/12/05 06:01:59;;;;;;;24.20;11.67;;;0.00;1.00;0.50;93806.00;;;;7393436;19;20628;-76
2022/12/05 06:04:26;;;;;;;20.07;12.00;;;0.00;1.00;0.60;93803.00;;;;7384810;19;20616;-74
2022/12/05 06:06:53;;;;;;;28.40;11.97;;;0.00;1.00;0.40;93755.00;;;;7393769;19;20208;-76
2022/12/05 06:09:26;;;;;;;19.53;11.10;;;0.00;1.00;0.30;93803.00;;;;7395183;19;20148;-76
2022/12/05 06:11:56;;;;;;;30.13;11.63;;;0.00;1.00;0.40;93790.00;;;;7395392;19;20159;-76
2022/12/05 06:14:23;;;;;;;62.97;12.87;;;0.00;1.00;0.40;93816.00;;;;7396036;19;20149;-77
2022/12/05 06:16:56;;;;;;;67.27;14.50;;;0.00;1.00;0.30;93790.00;;;;7394496;19;20133;-77
2022/12/05 06:19:24;;;;;;;24.47;11.90;;;0.00;1.00;0.40;93794.00;;;;7395105;19;20136;-77
2022/12/05 06:21:51;;;;;;;25.20;12.73;;;0.00;1.00;0.50;93800.00;;;;7395784;19;20145;-77
2022/12/05 06:24:25;;;;;;;26.70;12.70;;;-0.10;1.00;0.40;93793.00;;;;7388677;19;20607;-77
2022/12/05 06:26:52;;;;;;;26.67;12.83;;;0.00;1.00;0.50;93792.00;;;;7396427;19;20581;-77
2022/12/05 06:29:19;;;;;;;36.13;13.40;;;0.00;1.00;0.30;93799.00;;;;7394578;19;20143;-77
2022/12/05 06:31:59;;;;;;;30.10;11.90;;;0.00;1.00;0.20;93813.00;;;;7396166;19;20129;-77
2022/12/05 06:34:26;;;;;;;24.50;11.90;;;-0.10;1.00;0.20;93809.00;;;;7395058;19;20125;-77
2022/12/05 06:37:00;;;;;;;25.43;12.03;;;-0.10;1.00;-0.90;93831.00;;;;7395434;19;20525;-77
2022/12/05 06:39:27;;;;;;;24.73;11.47;;;-0.20;1.00;0.30;93826.00;;;;7391323;19;20614;-77
2022/12/05 06:42:01;;;;;;;23.63;12.60;;;-0.20;1.00;0.40;93819.00;;;;7394505;19;20152;-77
2022/12/05 06:44:41;;;;;;;25.33;13.00;;;-0.20;1.00;0.50;93837.00;;;;7392918;19;20530;-76
2022/12/05 06:47:08;;;;;;;22.17;12.33;;;-0.20;1.00;0.50;93832.00;;;;7395468;19;20204;-76
2022/12/05 06:49:41;;;;;;;24.27;12.17;;;-0.20;1.00;0.40;93827.00;;;;7396328;19;20125;-76
2022/12/05 06:52:09;;;;;;;21.23;11.63;;;-0.20;1.00;0.30;93823.00;;;;7399374;19;20612;-77
2022/12/05 06:54:36;;;;;;;21.13;11.60;;;-0.20;1.00;0.40;93810.00;;;;7400628;19;20161;-77
2022/12/05 06:57:09;;;;;;;22.47;12.20;;;-0.10;1.00;0.60;93836.00;;;;7399547;19;20155;-77
2022/12/05 06:59:37;;;;;;;19.93;11.33;;;-0.10;1.00;0.60;93838.00;;;;7400585;19;20145;-77
2022/12/05 07:02:08;;;;;;;22.83;12.47;;;0.00;1.00;0.70;93855.00;;;;7401726;19;20137;-77
2022/12/05 07:04:42;;;;;;;21.67;11.83;;;0.00;1.00;0.10;93862.00;;;;7400477;19;20580;-77
2022/12/05 07:07:09;;;;;;;19.63;10.57;;;0.00;1.00;0.70;93857.00;;;;7399031;19;20482;-76
2022/12/05 07:09:46;;;;;;;22.80;12.47;;;0.00;1.00;0.70;93845.00;;;;7400612;19;20177;-77
2022/12/05 07:12:21;;;;;;;23.07;12.50;;;0.10;1.00;0.60;93844.00;;;;7402967;19;20192;-76
2022/12/05 07:14:48;;;;;;;21.57;12.53;;;0.10;1.00;0.70;93846.00;;;;7397779;19;20639;-76
2022/12/05 07:17:18;;;;;;;24.17;11.77;;;0.10;1.00;0.70;93844.00;;;;7396440;19;20634;-76
2022/12/05 07:19:53;;;;;;;21.27;12.07;;;0.00;1.00;0.80;93847.00;;;;7397848;19;20137;-76
2022/12/05 07:22:21;;;;;;;20.50;11.63;;;0.00;1.00;0.70;93868.00;;;;7402539;19;20487;-75
2022/12/05 07:24:52;;;;;;;20.00;11.10;;;0.00;1.00;0.60;93865.00;;;;7400171;19;20616;-76
2022/12/05 07:27:26;;;;;;;21.73;11.73;;;0.00;1.00;0.60;93859.00;;;;7401298;19;20156;-76
2022/12/05 07:29:55;;;;;;;18.00;11.00;;;0.00;1.00;0.70;93867.00;;;;7397580;19;20124;-77
2022/12/05 07:32:22;;;;;;;17.13;10.37;;;0.10;1.00;0.70;93867.00;;;;7401472;19;20144;-76
2022/12/05 07:34:55;;;;;;;20.47;10.67;;;0.10;1.00;0.90;93831.00;;;;7399127;19;20633;-75
2022/12/05 07:37:23;;;;;;;19.23;10.73;;;0.10;1.00;0.70;93874.00;;;;7401879;19;20133;-76
2022/12/05 07:39:52;;;;;;;17.50;9.60;;;0.10;1.00;0.80;93864.00;;;;7399031;19;20173;-75
2022/12/05 07:42:32;;;;;;;16.00;9.50;;;0.20;1.00;0.80;93881.00;;;;7400515;19;20132;-77
2022/12/05 07:45:00;;;;;;;14.23;8.87;;;0.20;1.00;0.80;93874.00;;;;7399496;19;20129;-76
2022/12/05 07:47:33;;;;;;;18.63;9.10;;;0.20;1.00;0.80;93874.00;;;;7401058;19;20505;-76
2022/12/05 07:50:01;;;;;;;15.80;9.30;;;0.20;1.00;0.80;93876.00;;;;7400331;19;20132;-76
2022/12/05 07:52:28;;;;;;;20.50;10.53;;;0.20;1.00;0.80;93829.00;;;;7398366;19;20149;-77
2022/12/05 07:55:02;;;;;;;15.00;9.43;;;0.20;1.00;0.80;93860.00;;;;7398133;19;20157;-76
2022/12/05 07:57:30;;;;;;;14.93;9.17;;;0.20;1.00;0.80;93885.00;;;;7399551;19;20631;-76
2022/12/05 07:59:57;;;;;;;17.23;9.67;;;0.20;1.00;0.90;93875.00;;;;7395021;19;20215;-76
2022/12/05 08:02:31;;;;;;;18.40;9.93;;;0.20;1.00;0.70;93883.00;;;;7398989;19;20155;-76
2022/12/05 08:04:58;;;;;;;15.00;9.17;;;0.30;1.00;0.70;93881.00;;;;7396268;19;20781;-77
2022/12/05 08:07:25;;;;;;;14.10;8.80;;;0.30;1.00;0.70;93877.00;;;;7397774;19;20581;-76
2022/12/05 08:09:59;;;;;;;12.63;7.23;;;0.30;1.00;0.80;93896.00;;;;7395980;19;20132;-76
2022/12/05 08:12:27;;;;;;;12.13;7.63;;;0.30;1.00;1.00;93879.00;;;;7386877;19;20490;-77
2022/12/05 08:14:54;;;;;;;10.33;7.50;;;0.30;1.00;1.00;93900.00;;;;7395792;19;20201;-77
2022/12/05 08:17:29;;;;;;;11.73;8.03;;;0.30;1.00;0.90;93895.00;;;;7398036;19;20607;-77
2022/12/05 08:19:56;;;;;;;16.93;8.37;;;0.30;1.00;1.00;93884.00;;;;7398113;19;20125;-77
2022/12/05 08:22:24;;;;;;;10.70;6.97;;;0.30;1.00;1.00;93901.00;;;;7397647;19;20128;-76
2022/12/05 08:24:58;;;;;;;10.43;7.67;;;0.30;1.00;0.90;93879.00;;;;7395830;19;20612;-77
2022/12/05 08:27:25;;;;;;;9.63;6.83;;;0.40;1.00;1.00;93861.00;;;;7397127;19;20133;-76
2022/12/05 08:29:53;;;;;;;14.87;7.47;;;0.40;1.00;1.10;93894.00;;;;7399241;19;20133;-77
2022/12/05 08:32:26;;;;;;;10.53;6.77;;;0.40;1.00;1.00;93900.00;;;;7397883;19;20156;-77
2022/12/05 08:34:54;;;;;;;9.03;6.40;;;0.50;1.00;1.20;93885.00;;;;7397616;19;20633;-76
2022/12/05 08:37:21;;;;;;;10.43;6.63;;;0.50;1.00;1.30;93906.00;;;;7398242;19;20156;-77
2022/12/05 08:40:10;;;;;;;13.13;6.97;;;0.60;1.00;1.40;93912.00;;;;7398143;19;20156;-76
2022/12/05 08:42:45;;;;;;;9.17;5.93;;;0.60;1.00;1.30;93907.00;;;;7399744;19;20132;-77
2022/12/05 08:45:18;;;;;;;11.20;6.47;;;0.70;1.00;1.20;93885.00;;;;7397026;19;20182;-77
2022/12/05 08:47:45;;;;;;;9.00;6.33;;;0.70;1.00;1.20;93908.00;;;;7394201;19;20679;-77
2022/12/05 08:50:12;;;;;;;10.43;6.53;;;0.70;1.00;1.30;93916.00;;;;7398573;19;20148;-77
2022/12/05 08:52:45;;;;;;;13.83;5.73;;;0.80;13.40;1.10;93874.00;;;;7397927;19;20144;-75
2022/12/05 08:55:16;;;;;;;7.60;5.80;;;0.80;2.10;1.20;93919.00;;;;7395965;19;20628;-78
2022/12/05 08:57:43;;;;;;;8.30;5.63;;;0.80;3.50;1.30;93933.00;;;;7396617;19;20156;-76
2022/12/05 09:00:17;;;;;;;7.67;5.33;;;0.80;2.70;1.30;93954.00;;;;7396159;19;20148;-76
2022/12/05 09:02:50;;;;;;;7.53;5.47;;;0.80;5.40;1.40;93947.00;;;;7396961;19;20140;-78
2022/12/05 09:05:25;;;;;;;8.17;5.30;;;0.80;6.00;1.20;93945.00;;;;7398449;19;20129;-76
2022/12/05 09:07:55;;;;;;;12.23;6.07;;;0.80;9.40;1.20;93961.00;;;;7398064;19;20144;-78
2022/12/05 09:10:23;;;;;;;8.73;5.83;;;0.80;13.80;1.30;93970.00;;;;7392569;19;20188;-76
2022/12/05 09:12:57;;;;;;;6.67;5.10;;;0.90;15.60;1.50;93964.00;;;;7398397;19;20132;-75
2022/12/05 09:15:25;;;;;;;7.57;5.40;;;0.90;16.70;1.70;93852.00;;;;7392734;19;20506;-77
2022/12/05 09:17:56;;;;;;;9.30;6.50;;;1.00;18.40;1.90;93981.00;;;;7396150;19;20959;-75
2022/12/05 09:20:30;;;;;;;11.93;8.23;;;0.90;24.10;1.80;93988.00;;;;7396609;19;20224;-76
2022/12/05 09:22:57;;;;;;;11.77;8.77;;;0.80;29.10;1.80;93968.00;;;;7397635;19;20799;-76
2022/12/05 09:25:24;;;;;;;11.83;8.13;;;0.80;30.70;1.70;93991.00;;;;7396862;19;20129;-77
2022/12/05 09:27:59;;;;;;;11.10;8.27;;;0.80;28.20;1.70;93937.00;;;;7393169;19;20128;-76
2022/12/05 09:30:27;;;;;;;10.23;7.03;;;0.80;30.50;1.60;93979.00;;;;7396139;19;20137;-81
2022/12/05 09:32:57;;;;;;;8.70;6.13;;;0.80;33.10;1.40;93986.00;;;;7397487;19;20484;-76
2022/12/05 09:35:31;;;;;;;8.37;6.17;;;0.90;39.20;1.40;94003.00;;;;7396370;19;20157;-76
2022/12/05 09:37:58;;;;;;;9.17;5.73;;;1.00;36.10;1.80;93975.00;;;;7397067;19;20133;-76
2022/12/05 09:40:26;;;;;;;7.80;6.43;;;1.00;30.80;1.60;94003.00;;;;7395998;19;20149;-76
2022/12/05 09:43:19;;;;;;;8.70;6.30;;;1.00;35.50;1.70;93999.00;;;;7394232;19;20137;-75
2022/12/05 09:46:08;;;;;;;7.37;5.87;;;1.00;23.10;1.80;93977.00;;;;7399219;19;20168;-78
2022/12/05 09:48:43;;;;;;;9.30;6.27;;;1.00;5.60;1.80;93971.00;;;;7395747;19;20176;-75
2022/12/05 09:51:12;;;;;;;7.13;5.37;;;0.90;1.00;1.40;93957.00;;;;7396756;19;20483;-76
2022/12/05 09:53:43;;;;;;;6.80;5.03;;;0.90;1.00;1.60;93939.00;;;;7397445;19;20216;-76
2022/12/05 09:56:29;;;;;;;6.43;5.23;;;0.90;1.00;1.60;93980.00;;;;7397449;19;20128;-77
2022/12/05 09:59:01;;;;;;;6.70;4.83;;;0.90;1.00;1.90;93992.00;;;;7396090;19;20152;-75
2022/12/05 10:02:02;;;;;;;7.97;5.13;;;0.90;1.00;2.00;94004.00;;;;7396906;19;20596;-75
2022/12/05 10:04:33;;;;;;;6.53;5.00;;;1.00;1.00;2.00;94007.00;;;;7393831;19;20136;-76
2022/12/05 10:07:25;;;;;;;7.53;5.50;;;1.10;1.00;1.80;93998.00;;;;7396054;19;20495;-76
2022/12/05 10:10:11;;;;;;;6.87;5.33;;;1.20;1.00;2.10;94003.00;;;;7393021;19;20145;-75
2022/12/05 10:13:15;;;;;;;6.27;5.07;;;1.20;1.00;2.10;93988.00;;;;7397116;19;20148;-75
2022/12/05 10:16:03;;;;;;;7.57;4.93;;;1.30;1.00;2.20;94006.00;;;;7395251;19;20193;-75
2022/12/05 10:18:44;;;;;;;6.30;4.90;;;1.30;1.00;1.80;93994.00;;;;7396484;19;20154;-76
2022/12/05 10:21:55;;;;;;;7.10;4.93;;;1.40;1.00;2.20;94010.00;;;;7397113;19;20165;-76
2022/12/05 10:24:55;;;;;;;5.90;4.47;;;1.50;1.00;2.00;94004.00;;;;7397587;19;20485;-76
2022/12/05 10:27:47;;;;;;;5.60;4.17;;;1.50;99.90;1.80;93982.00;;;;7403077;19;20153;-76
2022/12/05 10:30:26;;;;;;;6.50;4.70;;;1.50;99.90;1.80;93992.00;;;;7403726;19;20149;-76
2022/12/05 10:32:53;;;;;;;5.70;4.80;;;1.40;99.90;1.70;93995.00;;;;7402366;19;20129;-76
2022/12/05 10:35:34;;;;;;;5.30;4.23;;;1.40;99.90;1.70;93988.00;;;;7403208;19;20128;-75
2022/12/05 10:38:30;;;;;;;6.27;4.70;;;1.40;99.90;2.00;94003.00;;;;7404510;19;20134;-74
2022/12/05 10:41:14;;;;;;;5.07;4.30;;;1.40;89.90;2.00;94002.00;;;;7401706;19;20172;-75
2022/12/05 10:43:58;;;;;;;5.73;4.73;;;1.40;45.90;2.20;93990.00;;;;7402612;19;20133;-75
2022/12/05 10:46:26;;;;;;;5.87;4.70;;;1.50;48.00;2.20;94012.00;;;;7403707;19;20143;-76
2022/12/05 10:49:01;;;;;;;5.77;4.40;;;1.50;99.90;2.40;93986.00;;;;7403919;19;20148;-76
2022/12/05 10:51:28;;;;;;;7.30;4.90;;;1.60;89.70;2.60;93995.00;;;;7404963;19;20148;-74
2022/12/05 10:54:28;;;;;;;4.60;4.10;;;1.60;44.80;2.70;93984.00;;;;7403186;19;20127;-75
2022/12/05 10:57:23;;;;;;;6.10;3.90;;;1.80;93.10;3.00;93983.00;;;;7403721;19;20137;-74
2022/12/05 10:59:51;;;;;;;6.63;5.10;;;2.00;99.90;3.20;93988.00;;;;7402207;19;20152;-75
2022/12/05 11:02:30;;;;;;;4.63;3.77;;;2.20;99.90;3.00;93979.00;;;;7403062;19;20132;-75
2022/12/05 11:04:58;;;;;;;6.70;4.73;;;2.50;58.70;3.30;93964.00;;;;7400798;19;20157;-76
2022/12/05 11:07:48;;;;;;;5.47;4.07;;;2.60;1.00;3.50;93947.00;;;;7403961;19;20643;-76
2022/12/05 11:10:23;;;;;;;5.13;4.03;;;2.60;99.90;3.60;93979.00;;;;7399449;19;20152;-76
2022/12/05 11:12:59;;;;;;;4.87;3.80;;;2.80;99.90;3.70;93975.00;;;;7402590;19;20164;-76
2022/12/05 11:15:30;;;;;;;5.37;3.80;;;2.80;92.80;3.60;93969.00;;;;7400811;19;20158;-77
2022/12/05 11:18:24;;;;;;;4.23;3.37;;;2.70;1.00;3.40;93981.00;;;;7405808;19;20484;-77
2022/12/05 11:20:52;;;;;;;4.07;3.30;;;2.70;1.00;3.30;93948.00;;;;7403206;19;20192;-77
2022/12/05 11:23:29;;;;;;;4.10;3.33;;;2.60;1.00;3.20;93975.00;;;;7404397;19;20133;-77
2022/12/05 11:25:58;;;;;;;3.97;3.20;;;2.50;1.00;3.40;93967.00;;;;7404724;19;20204;-75
2022/12/05 11:28:36;;;;;;;4.57;3.80;;;2.50;1.00;3.10;93967.00;;;;7401729;19;20145;-76
2022/12/05 11:31:24;;;;;;;4.23;3.67;;;2.60;99.90;3.40;93968.00;;;;7402697;19;20133;-77
2022/12/05 11:34:19;;;;;;;5.10;3.90;;;2.80;99.90;3.50;93960.00;;;;7401772;19;20607;-76
2022/12/05 11:37:03;;;;;;;4.80;3.87;;;3.00;99.90;3.70;93958.00;;;;7401918;19;20124;-76
2022/12/05 11:39:32;;;;;;;4.13;3.60;;;3.10;99.90;3.70;93958.00;;;;7399130;19;20132;-76
2022/12/05 11:43:05;;;;;;;5.40;4.00;;;3.20;1.00;4.20;93960.00;;;;7398451;19;20179;-75